createdAt,value
2019-03-13T00:00:45.931Z,59.05
2019-03-13T00:03:15.345Z,58.60
2019-03-13T00:05:44.756Z,58.60
2019-03-13T00:08:14.389Z,58.65
2019-03-13T00:10:43.628Z,59.02
2019-03-13T00:13:12.849Z,58.78
2019-03-13T00:15:42.101Z,58.90
2019-03-13T00:18:11.346Z,58.87
2019-03-13T00:20:40.608Z,58.87
2019-03-13T00:23:10.196Z,58.50
2019-03-13T00:25:39.502Z,58.18
2019-03-13T00:28:08.783Z,58.18
2019-03-13T00:30:38.102Z,58.87
2019-03-13T00:33:07.271Z,58.87
2019-03-13T00:35:36.424Z,59.01
2019-03-13T00:38:05.686Z,59.38
2019-03-13T00:40:34.908Z,59.26
2019-03-13T00:43:04.154Z,59.33
2019-03-13T00:45:33.412Z,59.06
2019-03-13T00:48:02.642Z,58.94
2019-03-13T00:50:32.772Z,58.94
2019-03-13T00:53:02.118Z,59.29
2019-03-13T00:55:31.336Z,58.36
2019-03-13T00:58:00.508Z,58.36
2019-03-13T01:00:40.329Z,58.12
2019-03-13T01:03:11.160Z,58.12
2019-03-13T01:05:41.930Z,58.00
2019-03-13T01:08:11.171Z,58.24
2019-03-13T01:10:40.375Z,58.42
2019-03-13T01:13:09.687Z,58.31
2019-03-13T01:15:38.850Z,58.31
2019-03-13T01:18:08.056Z,58.38
2019-03-13T01:20:37.270Z,58.57
2019-03-13T01:23:06.436Z,58.32
2019-03-13T01:25:35.738Z,58.32
2019-03-13T01:28:05.006Z,58.41
2019-03-13T01:30:35.897Z,57.80
2019-03-13T01:33:06.743Z,57.99
2019-03-13T01:35:37.531Z,57.99
2019-03-13T01:38:06.809Z,57.59
2019-03-13T01:40:36.076Z,58.15
2019-03-13T01:43:05.292Z,58.15
2019-03-13T01:45:34.518Z,57.85
2019-03-13T01:48:03.768Z,57.73
2019-03-13T01:50:33.068Z,57.78
2019-03-13T01:53:02.331Z,58.28
2019-03-13T01:55:31.535Z,58.28
2019-03-13T01:58:00.742Z,58.02
2019-03-13T02:00:30.247Z,58.07
2019-03-13T02:02:59.600Z,57.76
2019-03-13T02:05:28.801Z,57.76
2019-03-13T02:07:57.971Z,58.42
2019-03-13T02:10:27.171Z,58.26
2019-03-13T02:12:56.418Z,58.43
2019-03-13T02:15:25.679Z,58.43
2019-03-13T02:17:54.827Z,58.29
2019-03-13T02:20:24.132Z,58.43
2019-03-13T02:22:53.739Z,57.72
2019-03-13T02:25:22.976Z,57.82
2019-03-13T02:27:52.101Z,58.09
2019-03-13T02:30:23.404Z,59.00
2019-03-13T02:32:52.611Z,59.64
2019-03-13T02:35:21.831Z,59.43
2019-03-13T02:37:51.079Z,59.08
2019-03-13T02:40:20.282Z,59.08
2019-03-13T02:42:49.575Z,59.05
2019-03-13T02:45:18.809Z,59.05
2019-03-13T02:47:48.045Z,59.15
2019-03-13T02:50:18.544Z,58.41
2019-03-13T02:52:47.784Z,58.16
2019-03-13T02:55:17.005Z,59.58
2019-03-13T02:57:46.185Z,59.58
2019-03-13T03:00:18.777Z,59.24
2019-03-13T03:02:55.400Z,59.78
2019-03-13T03:05:24.646Z,59.54
2019-03-13T03:07:53.779Z,59.91
2019-03-13T03:10:23.005Z,60.33
2019-03-13T03:12:52.362Z,60.21
2019-03-13T03:15:21.597Z,60.16
2019-03-13T03:17:50.781Z,60.16
2019-03-13T03:20:21.478Z,60.59
2019-03-13T03:22:50.710Z,60.59
2019-03-13T03:25:20.264Z,60.22
2019-03-13T03:27:49.551Z,60.22
2019-03-13T03:30:23.323Z,60.59
2019-03-13T03:32:52.582Z,60.59
2019-03-13T03:35:21.783Z,61.25
2019-03-13T03:37:50.991Z,62.27
2019-03-13T03:40:22.868Z,61.98
2019-03-13T03:42:52.006Z,62.85
2019-03-13T03:45:21.278Z,62.85
2019-03-13T03:47:50.553Z,62.75
2019-03-13T03:50:20.128Z,62.18
2019-03-13T03:52:49.257Z,62.18
2019-03-13T03:55:18.463Z,62.28
2019-03-13T03:57:47.778Z,62.28
2019-03-13T04:00:18.362Z,61.87
2019-03-13T04:02:48.118Z,62.17
2019-03-13T04:05:17.355Z,61.83
2019-03-13T04:07:46.700Z,61.43
2019-03-13T04:10:16.951Z,61.43
2019-03-13T04:12:46.136Z,61.63
2019-03-13T04:15:16.411Z,61.55
2019-03-13T04:17:45.629Z,61.76
2019-03-13T04:20:18.464Z,61.40
2019-03-13T04:22:47.683Z,61.63
2019-03-13T04:25:25.942Z,61.63
2019-03-13T04:27:55.962Z,61.52
2019-03-13T04:30:25.435Z,62.07
2019-03-13T04:32:54.703Z,62.19
2019-03-13T04:35:23.839Z,62.19
2019-03-13T04:37:53.025Z,62.52
2019-03-13T04:40:22.466Z,62.35
2019-03-13T04:42:51.683Z,62.47
2019-03-13T04:45:20.972Z,62.34
2019-03-13T04:47:50.164Z,62.33
2019-03-13T04:50:19.475Z,62.33
2019-03-13T04:52:48.690Z,62.05
2019-03-13T04:55:18.433Z,62.79
2019-03-13T04:57:47.581Z,63.09
2019-03-13T05:00:17.992Z,63.29
2019-03-13T05:02:47.245Z,62.70
2019-03-13T05:05:37.509Z,62.32
2019-03-13T05:08:06.759Z,61.45
2019-03-13T05:10:36.052Z,61.36
2019-03-13T05:13:05.472Z,61.36
2019-03-13T05:15:34.849Z,61.31
2019-03-13T05:18:04.061Z,61.60
2019-03-13T05:20:33.192Z,62.04
2019-03-13T05:23:02.392Z,62.16
2019-03-13T05:25:31.475Z,62.01
2019-03-13T05:28:00.670Z,61.60
2019-03-13T05:30:29.932Z,61.60
2019-03-13T05:32:59.157Z,60.83
2019-03-13T05:35:28.374Z,60.31
2019-03-13T05:37:57.626Z,59.60
2019-03-13T05:40:26.909Z,59.60
2019-03-13T05:42:56.123Z,59.00
2019-03-13T05:45:25.297Z,58.24
2019-03-13T05:47:54.501Z,57.74
2019-03-13T05:50:23.576Z,57.36
2019-03-13T05:52:52.809Z,57.02
2019-03-13T05:55:23.357Z,56.88
2019-03-13T05:57:52.490Z,55.99
2019-03-13T06:00:23.202Z,54.87
2019-03-13T06:02:52.412Z,54.87
2019-03-13T06:05:21.714Z,54.08
2019-03-13T06:07:50.902Z,53.19
2019-03-13T06:10:20.212Z,52.32
2019-03-13T06:12:49.348Z,51.77
2019-03-13T06:15:19.478Z,51.77
2019-03-13T06:17:48.640Z,51.45
2019-03-13T06:20:18.160Z,49.92
2019-03-13T06:22:47.415Z,49.29
2019-03-13T06:25:16.626Z,48.34
2019-03-13T06:27:46.631Z,47.27
2019-03-13T06:30:22.092Z,46.99
2019-03-13T06:32:51.286Z,46.52
2019-03-13T06:35:23.526Z,45.90
2019-03-13T06:37:51.424Z,45.66
2019-03-13T06:40:21.520Z,45.18
2019-03-13T06:42:50.663Z,45.54
2019-03-13T06:45:23.015Z,45.16
2019-03-13T06:47:50.799Z,44.32
2019-03-13T06:50:29.612Z,44.32
2019-03-13T06:52:58.743Z,43.59
2019-03-13T06:55:27.829Z,43.41
2019-03-13T06:57:57.079Z,42.28
2019-03-13T07:00:30.908Z,42.28
2019-03-13T07:03:01.740Z,41.93
2019-03-13T07:05:48.841Z,41.71
2019-03-13T07:08:25.649Z,41.39
2019-03-13T07:10:56.518Z,40.93
2019-03-13T07:13:27.301Z,40.91
2019-03-13T07:16:01.103Z,40.23
2019-03-13T07:18:34.729Z,39.65
2019-03-13T07:21:14.185Z,39.56
2019-03-13T07:23:50.843Z,38.41
2019-03-13T07:26:21.678Z,37.65
2019-03-13T07:29:11.020Z,37.30
2019-03-13T07:31:31.026Z,37.21
2019-03-13T07:34:01.900Z,37.12
2019-03-13T07:36:32.645Z,36.73
2019-03-13T07:39:19.892Z,36.82
2019-03-13T07:41:50.698Z,37.37
2019-03-13T07:44:27.313Z,36.30
2019-03-13T07:47:06.910Z,36.17
2019-03-13T07:49:37.698Z,35.74
2019-03-13T07:52:24.816Z,34.76
2019-03-13T07:55:13.658Z,33.95
2019-03-13T07:57:56.679Z,34.26
2019-03-13T08:00:30.138Z,34.37
2019-03-13T08:03:17.424Z,34.30
2019-03-13T08:05:51.124Z,34.31
2019-03-13T08:08:30.989Z,33.89
2019-03-13T08:11:07.837Z,34.20
2019-03-13T08:13:44.750Z,33.86
2019-03-13T08:16:15.598Z,32.27
2019-03-13T08:18:46.382Z,32.09
2019-03-13T08:21:33.506Z,31.95
2019-03-13T08:24:10.151Z,32.11
2019-03-13T08:26:50.076Z,31.70
2019-03-13T08:29:29.704Z,31.75
2019-03-13T08:32:00.606Z,31.90
2019-03-13T08:34:47.525Z,31.79
2019-03-13T08:37:24.284Z,30.74
2019-03-13T08:40:13.207Z,30.80
2019-03-13T08:43:01.989Z,31.04
2019-03-13T08:45:35.515Z,30.70
2019-03-13T08:48:08.967Z,30.08
2019-03-13T08:50:39.884Z,30.08
2019-03-13T08:53:10.840Z,29.76
2019-03-13T08:55:57.959Z,30.13
2019-03-13T08:58:37.979Z,30.99
2019-03-13T09:01:08.876Z,31.19
2019-03-13T09:03:54.674Z,30.63
2019-03-13T09:06:34.101Z,30.42
2019-03-13T09:09:10.884Z,29.73
2019-03-13T09:11:53.927Z,29.13
2019-03-13T09:14:24.774Z,29.48
2019-03-13T09:16:58.444Z,28.79
2019-03-13T09:19:41.131Z,28.94
2019-03-13T09:22:14.867Z,29.22
2019-03-13T09:25:11.766Z,28.78
2019-03-13T09:27:39.041Z,28.97
2019-03-13T09:30:20.099Z,28.16
2019-03-13T09:33:07.325Z,28.54
2019-03-13T09:35:40.867Z,28.01
2019-03-13T09:38:23.698Z,27.21
2019-03-13T09:41:11.004Z,26.44
2019-03-13T09:43:50.875Z,26.03
2019-03-13T09:46:21.685Z,25.98
2019-03-13T09:48:52.450Z,26.07
2019-03-13T09:51:23.222Z,26.56
2019-03-13T09:53:54.146Z,27.30
2019-03-13T09:56:27.375Z,27.54
2019-03-13T09:58:58.230Z,27.41
2019-03-13T10:01:29.101Z,27.04
2019-03-13T10:04:08.814Z,27.44
2019-03-13T10:06:55.668Z,27.98
2019-03-13T10:09:26.514Z,28.39
2019-03-13T10:11:57.337Z,27.74
2019-03-13T10:14:28.148Z,28.43
2019-03-13T10:17:10.422Z,28.07
2019-03-13T10:19:33.958Z,28.15
2019-03-13T10:22:04.727Z,28.01
2019-03-13T10:24:38.126Z,27.73
2019-03-13T10:27:14.790Z,27.92
2019-03-13T10:29:54.661Z,27.54
2019-03-13T10:32:31.425Z,27.05
2019-03-13T10:35:08.179Z,26.77
2019-03-13T10:37:41.653Z,26.59
2019-03-13T10:40:18.683Z,27.41
2019-03-13T10:45:36.198Z,26.71
2019-03-13T10:48:07.080Z,27.27
2019-03-13T10:50:37.933Z,27.51
2019-03-13T10:53:25.115Z,28.17
2019-03-13T10:56:13.551Z,27.21
2019-03-13T10:58:59.555Z,26.14
2019-03-13T11:01:32.910Z,25.98
2019-03-13T11:04:09.620Z,25.95
2019-03-13T11:06:40.488Z,26.37
2019-03-13T11:09:26.343Z,26.04
2019-03-13T11:12:13.463Z,25.88
2019-03-13T11:14:50.167Z,25.98
2019-03-13T11:17:29.864Z,25.19
2019-03-13T11:20:12.586Z,25.17
2019-03-13T11:22:59.428Z,25.81
2019-03-13T11:25:30.324Z,25.43
2019-03-13T11:28:10.032Z,25.34
2019-03-13T11:30:50.118Z,25.09
2019-03-13T11:33:38.957Z,24.25
2019-03-13T11:36:15.527Z,23.82
2019-03-13T11:39:02.287Z,23.07
2019-03-13T11:41:35.746Z,23.89
2019-03-13T11:44:12.877Z,24.52
2019-03-13T11:46:49.724Z,25.09
2019-03-13T11:49:26.511Z,25.02
2019-03-13T11:52:09.281Z,24.54
2019-03-13T11:54:51.941Z,25.19
2019-03-13T11:57:40.765Z,23.91
2019-03-13T12:00:35.513Z,23.52
2019-03-13T12:03:23.021Z,23.07
2019-03-13T12:05:53.856Z,22.91
2019-03-13T12:08:36.791Z,22.40
2019-03-13T12:11:25.855Z,23.19
2019-03-13T12:14:13.048Z,23.52
2019-03-13T12:16:46.475Z,23.02
2019-03-13T12:19:20.083Z,23.17
2019-03-13T12:22:07.090Z,23.30
2019-03-13T12:24:43.743Z,23.08
2019-03-13T12:27:23.678Z,23.45
2019-03-13T12:29:54.549Z,23.47
2019-03-13T12:32:34.073Z,22.86
2019-03-13T12:35:23.550Z,22.96
2019-03-13T12:37:54.419Z,23.19
2019-03-13T12:40:36.932Z,23.54
2019-03-13T12:43:16.837Z,25.09
2019-03-13T12:45:50.500Z,25.01
2019-03-13T12:48:33.197Z,24.93
2019-03-13T12:51:06.679Z,25.21
2019-03-13T12:53:40.436Z,25.38
2019-03-13T12:56:30.243Z,26.07
2019-03-13T12:59:03.825Z,25.53
2019-03-13T13:01:37.519Z,25.16
2019-03-13T13:04:13.905Z,25.92
2019-03-13T13:06:59.687Z,26.33
2019-03-13T13:09:36.662Z,26.21
2019-03-13T13:12:13.733Z,26.37
2019-03-13T13:14:47.492Z,26.40
2019-03-13T13:17:21.463Z,26.88
2019-03-13T13:19:50.771Z,27.06
2019-03-13T13:22:20.058Z,26.53
2019-03-13T13:24:49.303Z,26.04
2019-03-13T13:27:18.415Z,26.51
2019-03-13T13:29:47.543Z,26.26
2019-03-13T13:32:16.714Z,26.54
2019-03-13T13:34:46.807Z,27.07
2019-03-13T13:37:15.887Z,27.61
2019-03-13T13:39:45.047Z,27.99
2019-03-13T13:42:14.176Z,28.28
2019-03-13T13:44:43.407Z,27.94
2019-03-13T13:47:12.712Z,28.24
2019-03-13T13:49:41.908Z,28.66
2019-03-13T13:52:11.252Z,28.54
2019-03-13T13:54:40.456Z,28.20
2019-03-13T13:57:09.650Z,28.11
2019-03-13T13:59:38.919Z,28.61
2019-03-13T14:02:08.076Z,28.58
2019-03-13T14:04:37.346Z,27.68
2019-03-13T14:07:06.592Z,27.57
2019-03-13T14:09:35.747Z,28.10
2019-03-13T14:12:04.951Z,28.67
2019-03-13T14:14:34.175Z,28.80
2019-03-13T14:17:03.380Z,28.74
2019-03-13T14:19:32.667Z,28.69
2019-03-13T14:22:02.023Z,28.96
2019-03-13T14:24:31.231Z,28.89
2019-03-13T14:27:13.523Z,28.41
2019-03-13T14:29:31.255Z,28.06
2019-03-13T14:32:00.473Z,28.16
2019-03-13T14:34:29.664Z,28.11
2019-03-13T14:36:58.864Z,28.11
2019-03-13T14:39:28.120Z,28.60
2019-03-13T14:41:57.266Z,28.36
2019-03-13T14:44:26.508Z,28.12
2019-03-13T14:46:57.836Z,28.23
2019-03-13T14:49:26.959Z,27.72
2019-03-13T14:51:56.245Z,27.82
2019-03-13T14:54:25.376Z,27.96
2019-03-13T14:56:54.453Z,27.84
2019-03-13T14:59:23.610Z,27.74
2019-03-13T15:01:52.797Z,27.73
2019-03-13T15:04:21.925Z,27.88
2019-03-13T15:06:51.103Z,28.29
2019-03-13T15:09:20.218Z,28.85
2019-03-13T15:11:49.431Z,29.03
2019-03-13T15:14:18.652Z,29.43
2019-03-13T15:16:47.857Z,29.64
2019-03-13T15:19:17.147Z,29.47
2019-03-13T15:21:46.384Z,29.59
2019-03-13T15:24:15.583Z,29.84
2019-03-13T15:26:44.706Z,30.27
2019-03-13T15:29:13.875Z,30.81
2019-03-13T15:31:43.176Z,31.30
2019-03-13T15:34:12.397Z,31.06
2019-03-13T15:36:41.743Z,31.29
2019-03-13T15:39:10.941Z,31.76
2019-03-13T15:41:40.069Z,31.88
2019-03-13T15:44:09.552Z,32.02
2019-03-13T15:46:38.744Z,32.29
2019-03-13T15:49:07.888Z,32.96
2019-03-13T15:51:38.831Z,33.03
2019-03-13T15:54:08.314Z,33.17
2019-03-13T15:56:37.487Z,33.19
2019-03-13T15:59:06.755Z,33.36
2019-03-13T16:01:35.973Z,33.21
2019-03-13T16:04:05.224Z,33.23
2019-03-13T16:06:34.481Z,33.33
2019-03-13T16:09:04.387Z,33.20
2019-03-13T16:11:33.631Z,33.19
2019-03-13T16:14:02.888Z,33.52
2019-03-13T16:16:32.194Z,33.59
2019-03-13T16:19:01.406Z,33.85
2019-03-13T16:21:30.647Z,34.28
2019-03-13T16:23:59.869Z,34.23
2019-03-13T16:26:29.089Z,34.22
2019-03-13T16:28:58.370Z,34.42
2019-03-13T16:31:27.663Z,34.47
2019-03-13T16:33:56.799Z,34.66
2019-03-13T16:36:26.026Z,34.82
2019-03-13T16:38:55.180Z,34.73
2019-03-13T16:41:24.456Z,34.64
2019-03-13T16:43:53.733Z,34.81
2019-03-13T16:46:22.895Z,34.99
2019-03-13T16:48:52.232Z,35.08
2019-03-13T16:51:21.461Z,35.17
2019-03-13T16:53:51.713Z,35.29
2019-03-13T16:56:21.493Z,35.56
2019-03-13T16:58:50.805Z,35.71
2019-03-13T17:01:20.137Z,35.66
2019-03-13T17:03:49.349Z,35.83
2019-03-13T17:06:18.614Z,35.90
2019-03-13T17:08:47.815Z,36.07
2019-03-13T17:11:17.028Z,36.20
2019-03-13T17:13:47.260Z,36.38
2019-03-13T17:16:16.534Z,36.45
2019-03-13T17:18:45.686Z,36.54
2019-03-13T17:21:14.932Z,36.66
2019-03-13T17:23:44.177Z,36.76
2019-03-13T17:26:13.388Z,36.87
2019-03-13T17:28:42.656Z,37.17
2019-03-13T17:31:11.861Z,37.10
2019-03-13T17:33:41.088Z,37.39
2019-03-13T17:36:10.393Z,37.53
2019-03-13T17:38:39.599Z,37.67
2019-03-13T17:41:08.851Z,37.79
2019-03-13T17:43:39.727Z,38.02
2019-03-13T17:46:09.134Z,37.95
2019-03-13T17:48:38.405Z,38.13
2019-03-13T17:51:07.708Z,38.23
2019-03-13T17:53:37.228Z,38.21
2019-03-13T17:56:06.463Z,38.69
2019-03-13T17:58:35.668Z,38.60
2019-03-13T18:01:05.164Z,38.94
2019-03-13T18:03:34.426Z,39.17
2019-03-13T18:06:03.698Z,39.44
2019-03-13T18:08:32.916Z,39.68
2019-03-13T18:11:02.126Z,39.88
2019-03-13T18:13:31.385Z,39.94
2019-03-13T18:16:00.598Z,40.30
2019-03-13T18:18:29.804Z,40.57
2019-03-13T18:20:59.042Z,40.68
2019-03-13T18:23:28.249Z,40.96
2019-03-13T18:25:57.471Z,41.01
2019-03-13T18:28:26.738Z,41.32
2019-03-13T18:30:55.920Z,41.46
2019-03-13T18:33:25.169Z,41.63
2019-03-13T18:35:54.378Z,41.66
2019-03-13T18:38:23.616Z,41.87
2019-03-13T18:40:52.751Z,41.77
2019-03-13T18:43:22.209Z,41.79
2019-03-13T18:45:51.412Z,41.85
2019-03-13T18:48:20.694Z,41.78
2019-03-13T18:50:49.949Z,41.84
2019-03-13T18:53:19.159Z,41.86
2019-03-13T18:55:48.387Z,41.88
2019-03-13T18:58:17.657Z,41.99
2019-03-13T19:00:46.929Z,42.00
2019-03-13T19:03:16.122Z,42.04
2019-03-13T19:05:45.488Z,42.12
2019-03-13T19:08:14.676Z,42.19
2019-03-13T19:10:43.939Z,42.18
2019-03-13T19:13:13.285Z,42.18
2019-03-13T19:15:42.515Z,42.18
2019-03-13T19:18:11.731Z,42.28
2019-03-13T19:20:41.088Z,42.40
2019-03-13T19:23:10.297Z,42.38
2019-03-13T19:25:39.503Z,42.51
2019-03-13T19:28:08.682Z,42.51
2019-03-13T19:30:38.249Z,42.59
2019-03-13T19:33:07.664Z,42.79
2019-03-13T19:35:38.541Z,42.79
2019-03-13T19:38:10.125Z,42.98
2019-03-13T19:40:39.400Z,42.96
2019-03-13T19:43:08.643Z,43.14
2019-03-13T19:45:40.437Z,43.13
2019-03-13T19:48:10.257Z,43.23
2019-03-13T19:50:39.505Z,43.33
2019-03-13T19:53:08.739Z,43.46
2019-03-13T19:55:38.009Z,43.54
2019-03-13T19:58:07.819Z,43.81
2019-03-13T20:00:37.048Z,43.73
2019-03-13T20:03:14.925Z,43.93
2019-03-13T20:05:46.194Z,44.17
2019-03-13T20:08:15.229Z,44.32
2019-03-13T20:10:44.459Z,44.53
2019-03-13T20:13:13.687Z,44.73
2019-03-13T20:15:42.986Z,44.97
2019-03-13T20:18:12.232Z,45.21
2019-03-13T20:20:41.505Z,45.26
2019-03-13T20:23:14.931Z,45.54
2019-03-13T20:25:44.171Z,45.72
2019-03-13T20:28:13.477Z,45.92
2019-03-13T20:30:42.783Z,46.10
2019-03-13T20:33:12.224Z,46.37
2019-03-13T20:35:41.516Z,46.45
2019-03-13T20:38:10.728Z,46.85
2019-03-13T20:40:40.197Z,46.98
2019-03-13T20:43:27.995Z,47.17
2019-03-13T20:45:57.335Z,47.40
2019-03-13T20:48:26.549Z,47.62
2019-03-13T20:50:55.832Z,47.82
2019-03-13T20:53:25.336Z,48.04
2019-03-13T20:55:54.590Z,47.93
2019-03-13T20:58:23.798Z,48.26
2019-03-13T21:00:53.055Z,48.58
2019-03-13T21:03:22.181Z,48.58
2019-03-13T21:05:51.460Z,49.06
2019-03-13T21:08:20.842Z,49.06
2019-03-13T21:10:50.177Z,49.19
2019-03-13T21:13:19.356Z,49.30
2019-03-13T21:15:48.705Z,49.43
2019-03-13T21:18:18.117Z,49.58
2019-03-13T21:20:47.325Z,49.72
2019-03-13T21:23:16.840Z,49.99
2019-03-13T21:25:45.991Z,49.99
2019-03-13T21:28:15.204Z,50.31
2019-03-13T21:30:44.343Z,50.43
2019-03-13T21:33:13.565Z,50.63
2019-03-13T21:35:42.772Z,50.71
2019-03-13T21:38:13.274Z,50.99
2019-03-13T21:40:42.695Z,51.03
2019-03-13T21:43:11.927Z,51.33
2019-03-13T21:45:41.797Z,51.31
2019-03-13T21:48:11.310Z,51.46
2019-03-13T21:50:40.638Z,51.59
2019-03-13T21:53:09.796Z,51.65
2019-03-13T21:55:39.276Z,51.67
2019-03-13T21:58:08.562Z,51.90
2019-03-13T22:00:37.913Z,52.15
2019-03-13T22:03:07.200Z,52.06
2019-03-13T22:05:36.287Z,52.29
2019-03-13T22:08:05.546Z,52.46
2019-03-13T22:10:34.731Z,52.70
2019-03-13T22:13:03.897Z,52.79
2019-03-13T22:15:34.779Z,52.84
2019-03-13T22:18:03.957Z,52.98
2019-03-13T22:20:33.263Z,53.06
2019-03-13T22:23:02.497Z,53.22
2019-03-13T22:25:31.707Z,53.30
2019-03-13T22:28:00.934Z,53.42
2019-03-13T22:30:30.171Z,53.67
2019-03-13T22:32:59.361Z,53.76
2019-03-13T22:35:28.493Z,53.79
2019-03-13T22:37:57.731Z,53.99
2019-03-13T22:40:26.872Z,54.11
2019-03-13T22:42:56.194Z,54.12
2019-03-13T22:45:25.377Z,54.19
2019-03-13T22:47:54.502Z,54.22
2019-03-13T22:50:24.667Z,54.28
2019-03-13T22:52:53.923Z,54.50
2019-03-13T22:55:23.142Z,54.67
2019-03-13T22:57:52.283Z,54.75
2019-03-13T23:00:47.243Z,54.89
2019-03-13T23:03:17.334Z,54.89
2019-03-13T23:05:46.532Z,54.88
2019-03-13T23:08:15.774Z,54.88
2019-03-13T23:10:45.583Z,55.12
2019-03-13T23:13:17.220Z,55.57
2019-03-13T23:15:46.260Z,55.61
2019-03-13T23:18:18.041Z,55.60
2019-03-13T23:20:46.360Z,55.85
2019-03-13T23:23:15.531Z,56.00
2019-03-13T23:25:44.997Z,56.00
2019-03-13T23:28:14.197Z,55.98
2019-03-13T23:30:43.384Z,56.16
2019-03-13T23:33:12.513Z,56.10
2019-03-13T23:35:41.726Z,56.10
2019-03-13T23:38:11.183Z,56.22
2019-03-13T23:40:40.391Z,56.28
2019-03-13T23:43:09.604Z,56.51
2019-03-13T23:45:38.779Z,56.59
2019-03-13T23:48:07.985Z,56.76
2019-03-13T23:50:37.281Z,56.76
2019-03-13T23:53:06.470Z,56.79
2019-03-13T23:55:35.606Z,56.79
2019-03-13T23:58:05.393Z,56.82
